createdAt,value
2022-11-04T00:00:57.000Z,92.8
2022-11-04T00:02:13.000Z,93.1
2022-11-04T00:03:29.000Z,93.4
2022-11-04T00:04:44.000Z,93.8
2022-11-04T00:06:00.000Z,94.3
2022-11-04T00:07:16.000Z,94.4
2022-11-04T00:08:32.000Z,94.8
2022-11-04T00:11:05.000Z,95.3
2022-11-04T00:12:21.000Z,95.5
2022-11-04T00:13:36.000Z,95.6
2022-11-04T00:14:53.000Z,95.9
2022-11-04T00:16:09.000Z,95.8
2022-11-04T00:17:25.000Z,95.9
2022-11-04T00:19:58.000Z,95
2022-11-04T00:21:14.000Z,94.2
2022-11-04T00:22:30.000Z,94.3
2022-11-04T00:23:47.000Z,94.2
2022-11-04T00:25:03.000Z,94.1
2022-11-04T00:26:19.000Z,93.6
2022-11-04T00:27:36.000Z,93.7
2022-11-04T00:28:52.000Z,93.6
2022-11-04T00:30:07.000Z,93.5
2022-11-04T00:31:23.000Z,93.6
2022-11-04T00:32:40.000Z,93.5
2022-11-04T00:33:56.000Z,93.4
2022-11-04T00:36:29.000Z,93.6
2022-11-04T00:37:45.000Z,93
2022-11-04T00:39:01.000Z,92.7
2022-11-04T00:40:17.000Z,92.7
2022-11-04T00:41:34.000Z,92.3
2022-11-04T00:42:50.000Z,92.5
2022-11-04T00:44:06.000Z,92.5
2022-11-04T00:45:23.000Z,92.4
2022-11-04T00:46:39.000Z,92.7
2022-11-04T00:47:54.000Z,92.9
2022-11-04T00:49:11.000Z,93
2022-11-04T00:50:27.000Z,92.6
2022-11-04T00:51:43.000Z,92.6
2022-11-04T00:53:00.000Z,92.7
2022-11-04T00:54:16.000Z,92.8
2022-11-04T00:55:32.000Z,92.8
2022-11-04T00:56:48.000Z,92.9
2022-11-04T00:58:05.000Z,93.2
2022-11-04T00:59:21.000Z,93.2
2022-11-04T01:01:53.000Z,93.2
2022-11-04T01:03:08.000Z,93.2
2022-11-04T01:04:24.000Z,93.2
2022-11-04T01:05:40.000Z,93.2
2022-11-04T01:06:57.000Z,93.2
2022-11-04T01:08:13.000Z,93.2
2022-11-04T01:09:29.000Z,93.2
2022-11-04T01:10:46.000Z,93.2
2022-11-04T01:12:02.000Z,93.1
2022-11-04T01:13:18.000Z,93.2
2022-11-04T01:14:33.000Z,93.3
2022-11-04T01:15:49.000Z,93.2
2022-11-04T01:18:21.000Z,93.6
2022-11-04T01:19:38.000Z,93.6
2022-11-04T01:20:54.000Z,93.1
2022-11-04T01:22:10.000Z,93.2
2022-11-04T01:23:27.000Z,92.8
2022-11-04T01:24:43.000Z,92.7
2022-11-04T01:27:15.000Z,93
2022-11-04T01:28:32.000Z,93
2022-11-04T01:29:48.000Z,93
2022-11-04T01:31:03.000Z,92.9
2022-11-04T01:32:19.000Z,93
2022-11-04T01:33:35.000Z,93.1
2022-11-04T01:34:51.000Z,93.2
2022-11-04T01:36:07.000Z,93.2
2022-11-04T01:37:24.000Z,93.1
2022-11-04T01:39:56.000Z,92.9
2022-11-04T01:41:13.000Z,92.7
2022-11-04T01:42:29.000Z,92.6
2022-11-04T01:43:45.000Z,92.6
2022-11-04T01:46:18.000Z,92.3
2022-11-04T01:48:49.000Z,92.1
2022-11-04T01:50:05.000Z,91.8
2022-11-04T01:51:20.000Z,92.1
2022-11-04T01:52:36.000Z,91.8
2022-11-04T01:53:53.000Z,92.1
2022-11-04T01:55:09.000Z,92.1
2022-11-04T01:56:25.000Z,92
2022-11-04T01:57:41.000Z,91.9
2022-11-04T01:58:58.000Z,91.9
2022-11-04T02:00:14.000Z,91.8
2022-11-04T02:01:30.000Z,92
2022-11-04T02:02:47.000Z,92.1
2022-11-04T02:05:18.000Z,92.3
2022-11-04T02:06:33.000Z,92.3
2022-11-04T02:07:50.000Z,91.5
2022-11-04T02:09:06.000Z,91.9
2022-11-04T02:10:22.000Z,91.8
2022-11-04T02:11:39.000Z,91.8
2022-11-04T02:12:55.000Z,91.9
2022-11-04T02:14:11.000Z,91.7
2022-11-04T02:15:27.000Z,91.2
2022-11-04T02:16:44.000Z,91
2022-11-04T02:17:59.000Z,90.8
2022-11-04T02:19:14.000Z,91.1
2022-11-04T02:20:31.000Z,91
2022-11-04T02:21:47.000Z,91
2022-11-04T02:23:03.000Z,91.1
2022-11-04T02:24:19.000Z,91.1
2022-11-04T02:25:36.000Z,91.1
2022-11-04T02:26:52.000Z,90.9
2022-11-04T02:28:08.000Z,91.1
2022-11-04T02:30:41.000Z,90.9
2022-11-04T02:31:57.000Z,91.1
2022-11-04T02:33:14.000Z,90.8
2022-11-04T02:34:30.000Z,90.9
2022-11-04T02:35:45.000Z,90.8
2022-11-04T02:37:01.000Z,90.9
2022-11-04T02:38:18.000Z,90.9
2022-11-04T02:39:34.000Z,91.1
2022-11-04T02:40:50.000Z,90.9
2022-11-04T02:42:07.000Z,90.9
2022-11-04T02:43:23.000Z,91
2022-11-04T02:44:39.000Z,91
2022-11-04T02:45:54.000Z,90.6
2022-11-04T02:47:10.000Z,91
2022-11-04T02:48:26.000Z,90.9
2022-11-04T02:49:42.000Z,90.9
2022-11-04T02:50:59.000Z,90.7
2022-11-04T02:52:15.000Z,90.8
2022-11-04T02:53:31.000Z,90.8
2022-11-04T02:56:04.000Z,91
2022-11-04T02:57:20.000Z,91.2
2022-11-04T02:58:36.000Z,90.9
2022-11-04T02:59:53.000Z,90.7
2022-11-04T03:01:09.000Z,90.9
2022-11-04T03:02:25.000Z,91
2022-11-04T03:03:40.000Z,90.9
2022-11-04T03:04:57.000Z,90.8
2022-11-04T03:06:13.000Z,90.8
2022-11-04T03:08:46.000Z,90.7
2022-11-04T03:10:01.000Z,90.7
2022-11-04T03:11:16.000Z,90.8
2022-11-04T03:13:49.000Z,90.6
2022-11-04T03:15:05.000Z,90.3
2022-11-04T03:17:38.000Z,90.4
2022-11-04T03:18:54.000Z,90.2
2022-11-04T03:20:10.000Z,90.2
2022-11-04T03:21:27.000Z,90.4
2022-11-04T03:22:43.000Z,90.5
2022-11-04T03:23:59.000Z,90.5
2022-11-04T03:25:15.000Z,90.4
2022-11-04T03:26:31.000Z,90.3
2022-11-04T03:27:46.000Z,90.4
2022-11-04T03:29:02.000Z,90.6
2022-11-04T03:30:19.000Z,90.4
2022-11-04T03:34:07.000Z,90.3
2022-11-04T03:35:24.000Z,90.3
2022-11-04T03:36:40.000Z,90.3
2022-11-04T03:37:56.000Z,90.1
2022-11-04T03:39:13.000Z,90.1
2022-11-04T03:40:29.000Z,90.2
2022-11-04T03:41:45.000Z,90.3
2022-11-04T03:43:01.000Z,90.2
2022-11-04T03:44:18.000Z,90
2022-11-04T03:46:50.000Z,90.1
2022-11-04T03:48:07.000Z,90.1
2022-11-04T03:49:23.000Z,90.1
2022-11-04T03:50:39.000Z,89.9
2022-11-04T03:51:56.000Z,90.3
2022-11-04T03:53:12.000Z,90.5
2022-11-04T03:54:28.000Z,90.2
2022-11-04T03:55:44.000Z,90.3
2022-11-04T03:59:33.000Z,90.3
2022-11-04T04:00:49.000Z,90.5
2022-11-04T04:03:21.000Z,90.7
2022-11-04T04:04:37.000Z,90.6
2022-11-04T04:05:54.000Z,90.3
2022-11-04T04:07:10.000Z,90.3
2022-11-04T04:09:43.000Z,90.3
2022-11-04T04:12:15.000Z,90.1
2022-11-04T04:13:31.000Z,90.1
2022-11-04T04:14:48.000Z,90.2
2022-11-04T04:16:04.000Z,90
2022-11-04T04:17:19.000Z,89.8
2022-11-04T04:18:36.000Z,90
2022-11-04T04:19:52.000Z,90.1
2022-11-04T04:21:08.000Z,90.2
2022-11-04T04:22:25.000Z,90.2
2022-11-04T04:23:41.000Z,90.1
2022-11-04T04:24:57.000Z,90
2022-11-04T04:26:13.000Z,89.9
2022-11-04T04:27:30.000Z,90.1
2022-11-04T04:28:45.000Z,90.3
2022-11-04T04:30:01.000Z,90.2
2022-11-04T04:31:18.000Z,90.2
2022-11-04T04:32:34.000Z,90.4
2022-11-04T04:33:50.000Z,90.1
2022-11-04T04:35:06.000Z,89.9
2022-11-04T04:37:38.000Z,89.9
2022-11-04T04:38:53.000Z,89.9
2022-11-04T04:40:09.000Z,90.2
2022-11-04T04:41:25.000Z,90.5
2022-11-04T04:42:41.000Z,90.4
2022-11-04T04:43:57.000Z,90.1
2022-11-04T04:45:14.000Z,90
2022-11-04T04:46:30.000Z,90
2022-11-04T04:47:46.000Z,90.1
2022-11-04T04:50:19.000Z,90.2
2022-11-04T04:51:35.000Z,90.2
2022-11-04T04:52:52.000Z,90.1
2022-11-04T04:54:08.000Z,90.1
2022-11-04T04:55:24.000Z,89.8
2022-11-04T04:56:39.000Z,89.9
2022-11-04T04:57:56.000Z,90
2022-11-04T04:59:12.000Z,90.2
2022-11-04T05:00:28.000Z,89.9
2022-11-04T05:01:45.000Z,90.2
2022-11-04T05:03:01.000Z,90.4
2022-11-04T05:04:17.000Z,90.5
2022-11-04T05:05:33.000Z,90.6
2022-11-04T05:06:49.000Z,90.8
2022-11-04T05:08:04.000Z,90.8
2022-11-04T05:09:20.000Z,90.2
2022-11-04T05:10:37.000Z,89.7
2022-11-04T05:11:53.000Z,89.7
2022-11-04T05:13:09.000Z,89.7
2022-11-04T05:15:42.000Z,89.6
2022-11-04T05:16:58.000Z,89.9
2022-11-04T05:18:14.000Z,90
2022-11-04T05:19:31.000Z,89.9
2022-11-04T05:20:47.000Z,89.9
2022-11-04T05:22:03.000Z,90
2022-11-04T05:23:19.000Z,90
2022-11-04T05:24:35.000Z,89.5
2022-11-04T05:25:51.000Z,89.5
2022-11-04T05:27:07.000Z,89.2
2022-11-04T05:28:24.000Z,89.2
2022-11-04T05:29:40.000Z,89.1
2022-11-04T05:30:56.000Z,89.1
2022-11-04T05:32:12.000Z,88.9
2022-11-04T05:33:29.000Z,89.1
2022-11-04T05:34:45.000Z,89.3
2022-11-04T05:36:01.000Z,89.1
2022-11-04T05:38:34.000Z,89.1
2022-11-04T05:39:50.000Z,89.2
2022-11-04T05:41:06.000Z,89.4
2022-11-04T05:42:22.000Z,89.3
2022-11-04T05:44:54.000Z,89.9
2022-11-04T05:46:11.000Z,89.7
2022-11-04T05:47:27.000Z,89.6
2022-11-04T05:48:43.000Z,89.5
2022-11-04T05:50:00.000Z,89.4
2022-11-04T05:51:16.000Z,89.4
2022-11-04T05:53:48.000Z,89.9
2022-11-04T05:55:04.000Z,89.9
2022-11-04T05:56:19.000Z,90
2022-11-04T05:57:35.000Z,90
2022-11-04T05:58:52.000Z,90.1
2022-11-04T06:01:24.000Z,90
2022-11-04T06:02:40.000Z,90.2
2022-11-04T06:03:57.000Z,90.2
2022-11-04T06:06:29.000Z,90.6
2022-11-04T06:07:45.000Z,90.4
2022-11-04T06:09:02.000Z,90.4
2022-11-04T06:10:18.000Z,90.3
2022-11-04T06:11:33.000Z,90.4
2022-11-04T06:12:48.000Z,90.3
2022-11-04T06:14:05.000Z,90.4
2022-11-04T06:15:21.000Z,90.4
2022-11-04T06:16:37.000Z,90.1
2022-11-04T06:17:53.000Z,90.2
2022-11-04T06:19:10.000Z,90.3
2022-11-04T06:20:26.000Z,90.3
2022-11-04T06:21:42.000Z,90.2
2022-11-04T06:22:58.000Z,90.1
2022-11-04T06:24:15.000Z,90.1
2022-11-04T06:25:30.000Z,90.1
2022-11-04T06:26:45.000Z,90
2022-11-04T06:28:01.000Z,89.9
2022-11-04T06:29:18.000Z,89.9
2022-11-04T06:31:50.000Z,90
2022-11-04T06:33:06.000Z,90.3
2022-11-04T06:34:22.000Z,90.6
2022-11-04T06:35:39.000Z,90.8
2022-11-04T06:36:55.000Z,90.7
2022-11-04T06:38:11.000Z,90.6
2022-11-04T06:39:27.000Z,90.2
2022-11-04T06:40:44.000Z,90.2
2022-11-04T06:42:00.000Z,90.3
2022-11-04T06:43:15.000Z,90.3
2022-11-04T06:44:31.000Z,90.2
2022-11-04T06:45:48.000Z,90.2
2022-11-04T06:47:04.000Z,90.1
2022-11-04T06:48:20.000Z,90.2
2022-11-04T06:49:36.000Z,90.4
2022-11-04T06:50:53.000Z,90.4
2022-11-04T06:52:09.000Z,90.3
2022-11-04T06:53:24.000Z,90.1
2022-11-04T06:54:39.000Z,90.2
2022-11-04T06:57:12.000Z,89.7
2022-11-04T06:58:28.000Z,89.6
2022-11-04T06:59:44.000Z,89.6
2022-11-04T07:01:00.000Z,89.3
2022-11-04T07:02:17.000Z,89.4
2022-11-04T07:03:33.000Z,89.6
2022-11-04T07:04:49.000Z,89.6
2022-11-04T07:07:22.000Z,89.4
2022-11-04T07:09:54.000Z,89.5
2022-11-04T07:11:09.000Z,89.7
2022-11-04T07:12:25.000Z,89.5
2022-11-04T07:13:41.000Z,89.2
2022-11-04T07:14:57.000Z,89.1
2022-11-04T07:16:13.000Z,89.3
2022-11-04T07:17:30.000Z,89.6
2022-11-04T07:18:46.000Z,90
2022-11-04T07:20:02.000Z,89.7
2022-11-04T07:21:18.000Z,89.5
2022-11-04T07:22:34.000Z,89.2
2022-11-04T07:23:51.000Z,89.2
2022-11-04T07:25:06.000Z,89.1
2022-11-04T07:26:21.000Z,89
2022-11-04T07:27:37.000Z,88.8
2022-11-04T07:28:54.000Z,88.7
2022-11-04T07:30:10.000Z,88.5
2022-11-04T07:31:26.000Z,88.4
2022-11-04T07:32:42.000Z,88.6
2022-11-04T07:35:15.000Z,89.2
2022-11-04T07:36:31.000Z,89.3
2022-11-04T07:37:47.000Z,89.3
2022-11-04T07:39:04.000Z,89.1
2022-11-04T07:40:20.000Z,89
2022-11-04T07:41:36.000Z,89.1
2022-11-04T07:42:51.000Z,89.1
2022-11-04T07:44:07.000Z,89.1
2022-11-04T07:45:24.000Z,89.1
2022-11-04T07:49:12.000Z,88.8
2022-11-04T07:50:28.000Z,88.4
2022-11-04T07:51:44.000Z,88.4
2022-11-04T07:52:59.000Z,88.2
2022-11-04T07:54:15.000Z,87.9
2022-11-04T07:55:32.000Z,88.5
2022-11-04T07:56:48.000Z,89
2022-11-04T07:58:04.000Z,89.2
2022-11-04T08:00:37.000Z,89.2
2022-11-04T08:01:53.000Z,89.3
2022-11-04T08:03:09.000Z,89.4
2022-11-04T08:04:25.000Z,89.8
2022-11-04T08:06:58.000Z,89.6
2022-11-04T08:09:29.000Z,88.9
2022-11-04T08:10:44.000Z,88.7
2022-11-04T08:13:16.000Z,88.5
2022-11-04T08:15:48.000Z,88.1
2022-11-04T08:17:05.000Z,87.8
2022-11-04T08:18:21.000Z,87.5
2022-11-04T08:19:37.000Z,87.3
2022-11-04T08:22:10.000Z,87.1
2022-11-04T08:23:26.000Z,87.3
2022-11-04T08:24:42.000Z,87.2
2022-11-04T08:25:58.000Z,87.2
2022-11-04T08:27:15.000Z,87.1
2022-11-04T08:28:30.000Z,86.7
2022-11-04T08:29:46.000Z,86.8
2022-11-04T08:31:02.000Z,86.7
2022-11-04T08:32:18.000Z,86.9
2022-11-04T08:34:51.000Z,87.2
2022-11-04T08:36:07.000Z,87.6
2022-11-04T08:38:40.000Z,87.9
2022-11-04T08:39:56.000Z,88.2
2022-11-04T08:41:12.000Z,88.1
2022-11-04T08:42:28.000Z,88.2
2022-11-04T08:43:45.000Z,88.3
2022-11-04T08:45:01.000Z,88
2022-11-04T08:46:17.000Z,87.8
2022-11-04T08:47:33.000Z,87.1
2022-11-04T08:48:50.000Z,86.4
2022-11-04T08:51:22.000Z,86
2022-11-04T08:52:38.000Z,85
2022-11-04T08:53:55.000Z,85.2
2022-11-04T08:55:11.000Z,85.2
2022-11-04T08:56:27.000Z,85
2022-11-04T08:57:43.000Z,83.7
2022-11-04T08:58:59.000Z,81.6
2022-11-04T09:00:15.000Z,78.1
2022-11-04T09:01:31.000Z,74
2022-11-04T09:04:03.000Z,75
2022-11-04T09:06:36.000Z,70.9
2022-11-04T09:07:52.000Z,66
2022-11-04T09:09:08.000Z,62.9
2022-11-04T09:10:25.000Z,61.5
2022-11-04T09:11:41.000Z,62.6
2022-11-04T09:12:57.000Z,59.5
2022-11-04T09:14:13.000Z,57.2
2022-11-04T09:16:46.000Z,52.6
2022-11-04T09:18:01.000Z,52.3
2022-11-04T09:19:17.000Z,53.8
2022-11-04T09:21:50.000Z,52.3
2022-11-04T09:23:06.000Z,51.6
2022-11-04T09:24:22.000Z,51.6
2022-11-04T09:25:38.000Z,50.8
2022-11-04T09:26:55.000Z,50.8
2022-11-04T09:30:43.000Z,55.6
2022-11-04T09:32:00.000Z,58.8
2022-11-04T09:33:16.000Z,59.3
2022-11-04T09:34:31.000Z,57.7
2022-11-04T09:35:47.000Z,55
2022-11-04T09:37:04.000Z,53.9
2022-11-04T09:38:20.000Z,55.6
2022-11-04T09:39:36.000Z,53.6
2022-11-04T09:40:52.000Z,53.2
2022-11-04T09:42:08.000Z,53
2022-11-04T09:43:25.000Z,51.8
2022-11-04T09:44:41.000Z,49.4
2022-11-04T09:47:13.000Z,50.7
2022-11-04T09:48:30.000Z,48.9
2022-11-04T09:49:46.000Z,50.6
2022-11-04T09:51:01.000Z,51.9
2022-11-04T09:52:17.000Z,53.5
2022-11-04T09:56:06.000Z,52.2
2022-11-04T09:57:22.000Z,51.2
2022-11-04T09:58:39.000Z,50.1
2022-11-04T10:01:11.000Z,48.7
2022-11-04T10:02:27.000Z,47.3
2022-11-04T10:03:43.000Z,47.2
2022-11-04T10:05:00.000Z,47.9
2022-11-04T10:06:16.000Z,47.5
2022-11-04T10:07:31.000Z,46.4
2022-11-04T10:08:47.000Z,45.3
2022-11-04T10:10:04.000Z,45.1
2022-11-04T10:11:20.000Z,46.1
2022-11-04T10:12:36.000Z,52.4
2022-11-04T10:13:52.000Z,53.8
2022-11-04T10:15:09.000Z,56
2022-11-04T10:16:25.000Z,61.1
2022-11-04T10:17:41.000Z,60.8
2022-11-04T10:20:14.000Z,57.2
2022-11-04T10:21:30.000Z,61.8
2022-11-04T10:22:46.000Z,64.2
2022-11-04T10:24:01.000Z,65.2
2022-11-04T10:25:17.000Z,66.5
2022-11-04T10:26:34.000Z,68.4
2022-11-04T10:27:49.000Z,69.2
2022-11-04T10:29:05.000Z,69.4
2022-11-04T10:30:20.000Z,68.4
2022-11-04T10:32:53.000Z,62.1
2022-11-04T10:34:09.000Z,56.6
2022-11-04T10:35:25.000Z,57.8
2022-11-04T10:36:42.000Z,60.8
2022-11-04T10:37:58.000Z,65.9
2022-11-04T10:39:14.000Z,68.1
2022-11-04T10:40:30.000Z,69
2022-11-04T10:41:47.000Z,70.7
2022-11-04T10:43:03.000Z,71.2
2022-11-04T10:46:51.000Z,73.5
2022-11-04T10:49:24.000Z,73
2022-11-04T10:50:39.000Z,74.3
2022-11-04T10:51:54.000Z,73.7
2022-11-04T10:53:11.000Z,72.7
2022-11-04T10:54:27.000Z,70.9
2022-11-04T10:55:43.000Z,70.5
2022-11-04T10:56:59.000Z,67.9
2022-11-04T10:58:16.000Z,67.2
2022-11-04T10:59:32.000Z,66.2
2022-11-04T11:02:04.000Z,65.2
2022-11-04T11:03:21.000Z,63.5
2022-11-04T11:04:37.000Z,63.8
2022-11-04T11:05:53.000Z,63.3
2022-11-04T11:07:09.000Z,61
2022-11-04T11:08:25.000Z,59.8
2022-11-04T11:09:41.000Z,60.5
2022-11-04T11:12:13.000Z,58.2
2022-11-04T11:13:29.000Z,58.2
2022-11-04T11:14:46.000Z,59.6
2022-11-04T11:16:02.000Z,59.6
2022-11-04T11:17:18.000Z,56.9
2022-11-04T11:18:34.000Z,57.4
2022-11-04T11:19:51.000Z,58.3
2022-11-04T11:23:39.000Z,60.5
2022-11-04T11:24:55.000Z,61.6
2022-11-04T11:26:11.000Z,61.3
2022-11-04T11:27:27.000Z,59.9
2022-11-04T11:28:43.000Z,61
2022-11-04T11:29:59.000Z,60
2022-11-04T11:31:16.000Z,59.7
2022-11-04T11:32:32.000Z,61.3
2022-11-04T11:33:48.000Z,63
2022-11-04T11:35:04.000Z,64
2022-11-04T11:36:21.000Z,59.1
2022-11-04T11:38:53.000Z,51.9
2022-11-04T11:40:09.000Z,51.9
2022-11-04T11:41:25.000Z,50.5
2022-11-04T11:42:41.000Z,48.4
2022-11-04T11:43:57.000Z,46.2
2022-11-04T11:45:13.000Z,46.2
2022-11-04T11:46:30.000Z,45.9
2022-11-04T11:47:46.000Z,44.5
2022-11-04T11:49:02.000Z,43
2022-11-04T11:50:17.000Z,43.4
2022-11-04T11:51:33.000Z,42.5
2022-11-04T11:52:49.000Z,41.9
2022-11-04T11:54:05.000Z,41.8
2022-11-04T11:55:21.000Z,40.6
2022-11-04T11:56:37.000Z,40
2022-11-04T11:59:10.000Z,41.5
2022-11-04T12:00:26.000Z,39.9
2022-11-04T12:01:42.000Z,39.7
2022-11-04T12:02:59.000Z,41.5
2022-11-04T12:04:15.000Z,41.7
2022-11-04T12:05:31.000Z,40.3
2022-11-04T12:06:47.000Z,40.9
2022-11-04T12:08:03.000Z,41.1
2022-11-04T12:10:35.000Z,43.5
2022-11-04T12:11:50.000Z,45.5
2022-11-04T12:13:06.000Z,46.2
2022-11-04T12:14:22.000Z,47.1
2022-11-04T12:15:38.000Z,46.4
2022-11-04T12:16:54.000Z,46.1
2022-11-04T12:18:10.000Z,46.1
2022-11-04T12:19:27.000Z,47.1
2022-11-04T12:20:43.000Z,47.5
2022-11-04T12:21:59.000Z,47.9
2022-11-04T12:23:15.000Z,47.7
2022-11-04T12:24:32.000Z,50.6
2022-11-04T12:27:03.000Z,49.8
2022-11-04T12:28:19.000Z,50.2
2022-11-04T12:29:36.000Z,50.6
2022-11-04T12:30:52.000Z,55
2022-11-04T12:32:08.000Z,57.7
2022-11-04T12:33:24.000Z,59.6
2022-11-04T12:34:41.000Z,60.3
2022-11-04T12:37:13.000Z,58.7
2022-11-04T12:38:29.000Z,57.6
2022-11-04T12:39:46.000Z,57.1
2022-11-04T12:41:02.000Z,57.8
2022-11-04T12:43:34.000Z,57
2022-11-04T12:44:51.000Z,57.9
2022-11-04T12:46:06.000Z,58.6
2022-11-04T12:47:22.000Z,58.3
2022-11-04T12:48:38.000Z,59.5
2022-11-04T12:49:54.000Z,59.8
2022-11-04T12:52:27.000Z,59.1
2022-11-04T12:53:43.000Z,60.6
2022-11-04T12:54:59.000Z,61.3
2022-11-04T12:56:16.000Z,61.7
2022-11-04T12:57:32.000Z,60.5
2022-11-04T12:58:47.000Z,59.9
2022-11-04T13:01:20.000Z,60
2022-11-04T13:02:36.000Z,60.2
2022-11-04T13:05:08.000Z,61
2022-11-04T13:06:25.000Z,60.2
2022-11-04T13:08:57.000Z,59.8
2022-11-04T13:10:13.000Z,61.6
2022-11-04T13:11:29.000Z,60
2022-11-04T13:12:46.000Z,58.8
2022-11-04T13:14:02.000Z,58.9
2022-11-04T13:15:17.000Z,60.9
2022-11-04T13:17:50.000Z,61.7
2022-11-04T13:19:06.000Z,61.4
2022-11-04T13:20:22.000Z,61
2022-11-04T13:21:38.000Z,60.1
2022-11-04T13:22:55.000Z,60.5
2022-11-04T13:24:11.000Z,61.9
2022-11-04T13:25:27.000Z,62.9
2022-11-04T13:26:43.000Z,63
2022-11-04T13:28:00.000Z,63.8
2022-11-04T13:29:16.000Z,63.9
2022-11-04T13:30:32.000Z,63
2022-11-04T13:31:47.000Z,63.7
2022-11-04T13:33:03.000Z,63.2
2022-11-04T13:34:20.000Z,63.1
2022-11-04T13:35:35.000Z,64.4
2022-11-04T13:36:50.000Z,64.3
2022-11-04T13:38:06.000Z,64.6
2022-11-04T13:39:23.000Z,65.5
2022-11-04T13:40:39.000Z,65.3
2022-11-04T13:43:11.000Z,65.7
2022-11-04T13:44:28.000Z,66
2022-11-04T13:47:00.000Z,66.5
2022-11-04T13:48:16.000Z,66.8
2022-11-04T13:49:33.000Z,66.1
2022-11-04T13:50:49.000Z,65.5
2022-11-04T13:52:04.000Z,66.1
2022-11-04T13:53:19.000Z,65.7
2022-11-04T13:54:36.000Z,65.8
2022-11-04T13:55:52.000Z,65.5
2022-11-04T13:57:08.000Z,66
2022-11-04T13:58:24.000Z,66.4
2022-11-04T13:59:40.000Z,66.1
2022-11-04T14:00:57.000Z,66.5
2022-11-04T14:02:13.000Z,66.1
2022-11-04T14:03:29.000Z,66.2
2022-11-04T14:04:45.000Z,66.1
2022-11-04T14:06:01.000Z,66.4
2022-11-04T14:08:32.000Z,66
2022-11-04T14:09:48.000Z,67
2022-11-04T14:11:05.000Z,67.2
2022-11-04T14:12:21.000Z,67.5
2022-11-04T14:13:37.000Z,67.1
2022-11-04T14:14:53.000Z,67.2
2022-11-04T14:16:10.000Z,67.4
2022-11-04T14:17:26.000Z,67.4
2022-11-04T14:18:42.000Z,67.6
2022-11-04T14:21:14.000Z,67.5
2022-11-04T14:22:31.000Z,67.1
2022-11-04T14:23:46.000Z,67.4
2022-11-04T14:25:02.000Z,67.8
2022-11-04T14:26:18.000Z,68.2
2022-11-04T14:27:35.000Z,68.9
2022-11-04T14:28:51.000Z,69.5
2022-11-04T14:30:07.000Z,69.7
2022-11-04T14:31:23.000Z,68.3
2022-11-04T14:32:40.000Z,68.5
2022-11-04T14:33:56.000Z,69.2
2022-11-04T14:35:11.000Z,69.3
2022-11-04T14:36:26.000Z,68.9
2022-11-04T14:37:43.000Z,68.3
2022-11-04T14:38:59.000Z,68.5
2022-11-04T14:40:15.000Z,69
2022-11-04T14:41:31.000Z,69.2
2022-11-04T14:42:47.000Z,69.6
2022-11-04T14:44:04.000Z,69.8
2022-11-04T14:45:20.000Z,69.5
2022-11-04T14:46:36.000Z,69.2
2022-11-04T14:47:52.000Z,68.8
2022-11-04T14:50:25.000Z,69.6
2022-11-04T14:51:41.000Z,69.9
2022-11-04T14:52:56.000Z,69.4
2022-11-04T14:54:13.000Z,70
2022-11-04T14:55:29.000Z,70
2022-11-04T14:56:45.000Z,69.6
2022-11-04T14:59:18.000Z,69.5
2022-11-04T15:01:49.000Z,69.2
2022-11-04T15:03:04.000Z,69.2
2022-11-04T15:04:20.000Z,69.2
2022-11-04T15:05:36.000Z,69.2
2022-11-04T15:06:52.000Z,69.1
2022-11-04T15:08:08.000Z,69.5
2022-11-04T15:09:24.000Z,69.4
2022-11-04T15:11:57.000Z,69.8
2022-11-04T15:13:13.000Z,70.3
2022-11-04T15:14:29.000Z,70.2
2022-11-04T15:15:46.000Z,70.6
2022-11-04T15:17:02.000Z,70.7
2022-11-04T15:18:18.000Z,71
2022-11-04T15:19:34.000Z,70.9
2022-11-04T15:20:50.000Z,71.3
2022-11-04T15:22:06.000Z,71.5
2022-11-04T15:23:22.000Z,71.7
2022-11-04T15:24:38.000Z,71.7
2022-11-04T15:25:55.000Z,71.9
2022-11-04T15:27:11.000Z,72
2022-11-04T15:28:27.000Z,71.8
2022-11-04T15:29:43.000Z,71.8
2022-11-04T15:30:58.000Z,71.6
2022-11-04T15:32:14.000Z,71.7
2022-11-04T15:33:30.000Z,72.4
2022-11-04T15:34:46.000Z,72.2
2022-11-04T15:37:19.000Z,72.4
2022-11-04T15:39:51.000Z,72.8
2022-11-04T15:41:07.000Z,73.4
2022-11-04T15:42:24.000Z,73.8
2022-11-04T15:43:40.000Z,73.9
2022-11-04T15:44:56.000Z,74.3
2022-11-04T15:46:12.000Z,74.4
2022-11-04T15:47:28.000Z,74.3
2022-11-04T15:48:43.000Z,73.9
2022-11-04T15:49:59.000Z,74
2022-11-04T15:51:15.000Z,74.2
2022-11-04T15:52:32.000Z,74.1
2022-11-04T15:53:48.000Z,74.3
2022-11-04T15:55:04.000Z,74.2
2022-11-04T15:56:20.000Z,74.3
2022-11-04T15:57:36.000Z,74.5
2022-11-04T15:58:53.000Z,74.4
2022-11-04T16:00:09.000Z,74.5
2022-11-04T16:01:24.000Z,74.8
2022-11-04T16:02:39.000Z,75
2022-11-04T16:03:56.000Z,75.3
2022-11-04T16:05:12.000Z,75
2022-11-04T16:06:28.000Z,74.9
2022-11-04T16:07:44.000Z,74.5
2022-11-04T16:09:01.000Z,74.8
2022-11-04T16:10:17.000Z,75
2022-11-04T16:11:33.000Z,75.1
2022-11-04T16:12:49.000Z,75.6
2022-11-04T16:15:22.000Z,76
2022-11-04T16:16:38.000Z,76.3
2022-11-04T16:17:54.000Z,76
2022-11-04T16:19:09.000Z,75.6
2022-11-04T16:20:26.000Z,75.7
2022-11-04T16:21:42.000Z,75.7
2022-11-04T16:22:58.000Z,75.6
2022-11-04T16:24:15.000Z,75.5
2022-11-04T16:25:31.000Z,75.6
2022-11-04T16:26:47.000Z,75.7
2022-11-04T16:28:03.000Z,75.8
2022-11-04T16:29:19.000Z,76.3
2022-11-04T16:30:36.000Z,76.6
2022-11-04T16:31:52.000Z,76.4
2022-11-04T16:33:08.000Z,76.5
2022-11-04T16:34:25.000Z,76.8
2022-11-04T16:35:40.000Z,76.5
2022-11-04T16:36:56.000Z,76.8
2022-11-04T16:38:13.000Z,76.6
2022-11-04T16:42:01.000Z,76.5
2022-11-04T16:43:18.000Z,76.4
2022-11-04T16:44:34.000Z,76.2
2022-11-04T16:45:50.000Z,76
2022-11-04T16:47:07.000Z,76.2
2022-11-04T16:48:23.000Z,76.1
2022-11-04T16:49:39.000Z,76.1
2022-11-04T16:50:55.000Z,75.9
2022-11-04T16:52:11.000Z,76.2
2022-11-04T16:53:27.000Z,76.4
2022-11-04T16:54:43.000Z,76.4
2022-11-04T16:56:00.000Z,76.5
2022-11-04T16:57:16.000Z,76.5
2022-11-04T16:58:32.000Z,76.5
2022-11-04T16:59:48.000Z,76
2022-11-04T17:01:05.000Z,76
2022-11-04T17:02:21.000Z,76.1
2022-11-04T17:04:54.000Z,76.4
2022-11-04T17:06:09.000Z,76.5
2022-11-04T17:07:24.000Z,76.6
2022-11-04T17:08:40.000Z,76.4
2022-11-04T17:09:57.000Z,76.4
2022-11-04T17:11:13.000Z,76.6
2022-11-04T17:12:29.000Z,76.6
2022-11-04T17:13:45.000Z,76.6
2022-11-04T17:15:01.000Z,76.5
2022-11-04T17:16:17.000Z,76.3
2022-11-04T17:20:06.000Z,76.2
2022-11-04T17:22:39.000Z,75.9
2022-11-04T17:23:54.000Z,75.9
2022-11-04T17:25:09.000Z,76
2022-11-04T17:26:26.000Z,75.5
2022-11-04T17:27:42.000Z,75.7
2022-11-04T17:31:31.000Z,75.2
2022-11-04T17:34:03.000Z,75.4
2022-11-04T17:35:20.000Z,75.3
2022-11-04T17:36:36.000Z,75.6
2022-11-04T17:37:52.000Z,75.5
2022-11-04T17:39:08.000Z,75.6
2022-11-04T17:40:25.000Z,75.9
2022-11-04T17:41:40.000Z,76.3
2022-11-04T17:44:13.000Z,76.5
2022-11-04T17:45:29.000Z,76.4
2022-11-04T17:46:45.000Z,76.5
2022-11-04T17:48:01.000Z,76.4
2022-11-04T17:49:18.000Z,76.2
2022-11-04T17:50:34.000Z,75.9
2022-11-04T17:51:50.000Z,76.3
2022-11-04T17:53:07.000Z,76.6
2022-11-04T17:54:23.000Z,76
2022-11-04T17:56:55.000Z,76.2
2022-11-04T17:58:11.000Z,76.3
2022-11-04T17:59:27.000Z,76.1
2022-11-04T18:00:43.000Z,75.8
2022-11-04T18:02:00.000Z,75.8
2022-11-04T18:03:16.000Z,75.5
2022-11-04T18:04:32.000Z,76.2
2022-11-04T18:05:48.000Z,76.6
2022-11-04T18:07:05.000Z,75.9
2022-11-04T18:09:37.000Z,76.6
2022-11-04T18:10:54.000Z,76.6
2022-11-04T18:12:10.000Z,75.7
2022-11-04T18:13:26.000Z,75.9
2022-11-04T18:14:42.000Z,76
2022-11-04T18:15:58.000Z,75.6
2022-11-04T18:17:14.000Z,75.6
2022-11-04T18:18:30.000Z,75.2
2022-11-04T18:19:47.000Z,74.7
2022-11-04T18:21:03.000Z,74.2
2022-11-04T18:22:19.000Z,74.5
2022-11-04T18:23:35.000Z,74.5
2022-11-04T18:24:50.000Z,74.5
2022-11-04T18:26:06.000Z,74.6
2022-11-04T18:27:22.000Z,74.5
2022-11-04T18:28:39.000Z,73.9
2022-11-04T18:29:55.000Z,74.2
2022-11-04T18:31:11.000Z,74.2
2022-11-04T18:32:28.000Z,74.3
2022-11-04T18:33:44.000Z,74.7
2022-11-04T18:35:00.000Z,74.7
2022-11-04T18:36:16.000Z,74.6
2022-11-04T18:37:32.000Z,75.7
2022-11-04T18:38:47.000Z,76.9
2022-11-04T18:40:03.000Z,76.8
2022-11-04T18:41:20.000Z,77.4
2022-11-04T18:42:36.000Z,77.7
2022-11-04T18:43:52.000Z,77.7
2022-11-04T18:45:08.000Z,78
2022-11-04T18:47:41.000Z,77.5
2022-11-04T18:48:57.000Z,77.8
2022-11-04T18:50:14.000Z,78.1
2022-11-04T18:51:30.000Z,78.6
2022-11-04T18:52:46.000Z,78.9
2022-11-04T18:54:03.000Z,78.4
2022-11-04T18:55:18.000Z,78.3
2022-11-04T18:56:34.000Z,77.8
2022-11-04T18:57:50.000Z,78
2022-11-04T19:00:23.000Z,79
2022-11-04T19:01:38.000Z,79.2
2022-11-04T19:02:54.000Z,79.1
2022-11-04T19:04:10.000Z,79.3
2022-11-04T19:05:26.000Z,79.2
2022-11-04T19:06:42.000Z,78.9
2022-11-04T19:07:59.000Z,79.4
2022-11-04T19:09:15.000Z,79.6
2022-11-04T19:10:31.000Z,79.6